Etusivu
METAR-TAF:

METAR-TAF

Lentoasemat :

Roskilde, Tanska

Leveyspiiri: 55-35N, Pituuspiiri: 012-08E, korkeus merenpinnasta: 44 m

Tämänhetkinen sää

Tämä raportti tehtiin 27 minuuttia sitten, kello 04.20 UTC
Tuuli 14 kn idästä/kaakosta
Lämpötila 10°C
Kosteus 71%
Ilmanpaine 1019 hPa
Näkyvyys 10 km tai enemmän

METAR: EKRK 230420Z AUTO 11014KT 9999NDV NCD 10/05 Q1019

Aika: 06:47 (04:47 UTC)

Sääennuste

Tämä raportti tehtiin 2 tuntia ja 34 minuuttia sitten, kello 02.13 UTC
Ennuste voimassa 23. päivästä klo 03 UTC - 23. päivään klo 12 UTC
Tuuli 10 kn idästä/kaakosta
Näkyvyys 10 km tai enemmän
ei pilviä alle 1500 m:ssä eikä cumulonimbus-pilviä
Tulossa
23. päivästä klo 04 UTC - 23. päivään klo 07 UTC
Tuuli 20 kn idästä/kaakosta puuskistuen 35 kn:hen
Ajoittain
23. päivästä klo 07 UTC - 23. päivään klo 12 UTC
Tuuli 26 kn idästä/kaakosta puuskistuen 43 kn:hen

TAF: EKRK 230213Z 2303/2312 11010KT CAVOK BECMG 2304/2307 12020G35KT TEMPO 2307/2312 11026G43KT

Säähavainnot ja -ennusteet yli 4000 lentoasemalta (METAR- ja TAF-raportit).

Käytössä olevat sääasemat on merkitty karttaan keltaisilla ja punaisilla pisteillä.

Aseta hiiri pisteen päälle nähdäksesi sääaseman nimen.

Klikkaa sitten nähdäksesi säähavainnot ja -ennusteet.

Kartan vaihtaminen: klikkaa mustalla rastilla varustettuja vihreitä pisteitä, niin voit zoomata sisään; viivalla varustettua vihreää pistettä, niin voit zoomata ulos tai vihreitä nuolia, niin pääset viereisille kartoille.


METAR-TAF: